sensor_id;sensor_type;location;lat;lon;timestamp;P1;durP1;ratioP1;P2;durP2;ratioP2
74344;SDS011;62776;50.518;6.732;2023-06-14T00:02:18;2.70;;;2.50;;
74344;SDS011;62776;50.518;6.732;2023-06-14T00:05:06;2.40;;;2.20;;
74344;SDS011;62776;50.518;6.732;2023-06-14T00:07:58;3.80;;;2.53;;
74344;SDS011;62776;50.518;6.732;2023-06-14T00:10:46;3.05;;;2.10;;
74344;SDS011;62776;50.518;6.732;2023-06-14T00:13:39;3.15;;;2.63;;
74344;SDS011;62776;50.518;6.732;2023-06-14T00:16:29;5.55;;;2.72;;
74344;SDS011;62776;50.518;6.732;2023-06-14T00:19:19;4.22;;;2.88;;
74344;SDS011;62776;50.518;6.732;2023-06-14T00:22:07;3.78;;;2.45;;
74344;SDS011;62776;50.518;6.732;2023-06-14T00:24:53;2.95;;;2.30;;
74344;SDS011;62776;50.518;6.732;2023-06-14T00:27:44;2.60;;;2.40;;
74344;SDS011;62776;50.518;6.732;2023-06-14T00:30:31;3.88;;;2.70;;
74344;SDS011;62776;50.518;6.732;2023-06-14T00:33:21;2.60;;;2.40;;
74344;SDS011;62776;50.518;6.732;2023-06-14T00:36:14;2.63;;;2.42;;
74344;SDS011;62776;50.518;6.732;2023-06-14T00:39:03;3.08;;;2.78;;
74344;SDS011;62776;50.518;6.732;2023-06-14T00:41:49;2.67;;;2.47;;
74344;SDS011;62776;50.518;6.732;2023-06-14T00:44:51;2.80;;;2.60;;
74344;SDS011;62776;50.518;6.732;2023-06-14T00:47:41;2.72;;;2.53;;
74344;SDS011;62776;50.518;6.732;2023-06-14T00:50:33;2.90;;;2.70;;
74344;SDS011;62776;50.518;6.732;2023-06-14T00:53:22;2.83;;;2.63;;
74344;SDS011;62776;50.518;6.732;2023-06-14T00:56:13;2.65;;;2.45;;
74344;SDS011;62776;50.518;6.732;2023-06-14T00:59:01;2.80;;;2.60;;
74344;SDS011;62776;50.518;6.732;2023-06-14T01:01:49;3.30;;;3.00;;
74344;SDS011;62776;50.518;6.732;2023-06-14T01:04:38;2.70;;;2.45;;
74344;SDS011;62776;50.518;6.732;2023-06-14T01:10:45;4.72;;;2.58;;
74344;SDS011;62776;50.518;6.732;2023-06-14T01:13:56;3.42;;;2.78;;
74344;SDS011;62776;50.518;6.732;2023-06-14T01:16:54;3.90;;;3.05;;
74344;SDS011;62776;50.518;6.732;2023-06-14T01:19:48;3.42;;;2.97;;
74344;SDS011;62776;50.518;6.732;2023-06-14T01:22:50;3.38;;;2.25;;
74344;SDS011;62776;50.518;6.732;2023-06-14T01:25:40;3.33;;;3.03;;
74344;SDS011;62776;50.518;6.732;2023-06-14T01:28:30;3.22;;;2.92;;
74344;SDS011;62776;50.518;6.732;2023-06-14T01:31:23;4.15;;;3.13;;
74344;SDS011;62776;50.518;6.732;2023-06-14T01:34:26;3.50;;;2.80;;
74344;SDS011;62776;50.518;6.732;2023-06-14T01:37:15;2.50;;;2.30;;
74344;SDS011;62776;50.518;6.732;2023-06-14T01:40:03;5.63;;;2.97;;
74344;SDS011;62776;50.518;6.732;2023-06-14T01:43:00;2.90;;;2.67;;
74344;SDS011;62776;50.518;6.732;2023-06-14T01:45:50;3.45;;;3.08;;
74344;SDS011;62776;50.518;6.732;2023-06-14T01:48:41;3.15;;;2.85;;
74344;SDS011;62776;50.518;6.732;2023-06-14T01:51:29;3.00;;;2.80;;
74344;SDS011;62776;50.518;6.732;2023-06-14T01:54:16;2.92;;;2.63;;
74344;SDS011;62776;50.518;6.732;2023-06-14T01:57:02;2.88;;;2.65;;
74344;SDS011;62776;50.518;6.732;2023-06-14T01:59:57;3.10;;;2.90;;
74344;SDS011;62776;50.518;6.732;2023-06-14T02:02:50;3.05;;;2.72;;
74344;SDS011;62776;50.518;6.732;2023-06-14T02:05:52;2.47;;;2.28;;
74344;SDS011;62776;50.518;6.732;2023-06-14T02:08:49;2.67;;;2.47;;
74344;SDS011;62776;50.518;6.732;2023-06-14T02:11:41;3.30;;;3.00;;
74344;SDS011;62776;50.518;6.732;2023-06-14T02:14:35;3.15;;;2.67;;
74344;SDS011;62776;50.518;6.732;2023-06-14T02:17:25;3.10;;;2.85;;
74344;SDS011;62776;50.518;6.732;2023-06-14T02:20:11;3.80;;;2.58;;
74344;SDS011;62776;50.518;6.732;2023-06-14T02:23:03;4.00;;;2.78;;
74344;SDS011;62776;50.518;6.732;2023-06-14T02:25:52;3.25;;;2.90;;
74344;SDS011;62776;50.518;6.732;2023-06-14T02:28:44;4.13;;;2.97;;
74344;SDS011;62776;50.518;6.732;2023-06-14T02:31:32;3.05;;;2.30;;
74344;SDS011;62776;50.518;6.732;2023-06-14T02:34:24;2.88;;;2.50;;
74344;SDS011;62776;50.518;6.732;2023-06-14T02:37:14;2.65;;;2.45;;
74344;SDS011;62776;50.518;6.732;2023-06-14T02:40:03;4.25;;;2.88;;
74344;SDS011;62776;50.518;6.732;2023-06-14T02:42:53;2.78;;;2.58;;
74344;SDS011;62776;50.518;6.732;2023-06-14T02:45:46;4.57;;;2.50;;
74344;SDS011;62776;50.518;6.732;2023-06-14T02:48:35;3.22;;;2.92;;
74344;SDS011;62776;50.518;6.732;2023-06-14T02:51:24;2.67;;;2.47;;
74344;SDS011;62776;50.518;6.732;2023-06-14T02:54:14;3.70;;;2.70;;
74344;SDS011;62776;50.518;6.732;2023-06-14T02:57:04;3.20;;;2.90;;
74344;SDS011;62776;50.518;6.732;2023-06-14T02:59:52;2.95;;;2.70;;
74344;SDS011;62776;50.518;6.732;2023-06-14T03:02:42;2.55;;;2.30;;
74344;SDS011;62776;50.518;6.732;2023-06-14T03:05:28;2.95;;;2.75;;
74344;SDS011;62776;50.518;6.732;2023-06-14T03:08:24;2.70;;;2.50;;
74344;SDS011;62776;50.518;6.732;2023-06-14T03:11:17;3.30;;;3.00;;
74344;SDS011;62776;50.518;6.732;2023-06-14T03:14:06;3.63;;;2.90;;
74344;SDS011;62776;50.518;6.732;2023-06-14T03:16:53;3.70;;;2.80;;
74344;SDS011;62776;50.518;6.732;2023-06-14T03:19:45;5.67;;;2.80;;
74344;SDS011;62776;50.518;6.732;2023-06-14T03:22:36;2.88;;;2.65;;
74344;SDS011;62776;50.518;6.732;2023-06-14T03:25:22;2.70;;;2.50;;
74344;SDS011;62776;50.518;6.732;2023-06-14T03:28:18;4.63;;;3.08;;
74344;SDS011;62776;50.518;6.732;2023-06-14T03:31:07;2.83;;;2.50;;
74344;SDS011;62776;50.518;6.732;2023-06-14T03:33:56;5.25;;;3.00;;
74344;SDS011;62776;50.518;6.732;2023-06-14T03:36:48;3.78;;;2.42;;
74344;SDS011;62776;50.518;6.732;2023-06-14T03:39:39;3.20;;;2.83;;
74344;SDS011;62776;50.518;6.732;2023-06-14T03:42:37;3.55;;;3.28;;
74344;SDS011;62776;50.518;6.732;2023-06-14T03:45:31;2.70;;;2.50;;
74344;SDS011;62776;50.518;6.732;2023-06-14T03:48:21;3.58;;;3.17;;
74344;SDS011;62776;50.518;6.732;2023-06-14T03:51:29;3.08;;;2.88;;
74344;SDS011;62776;50.518;6.732;2023-06-14T03:54:28;3.33;;;3.03;;
74344;SDS011;62776;50.518;6.732;2023-06-14T03:57:19;3.00;;;2.80;;
74344;SDS011;62776;50.518;6.732;2023-06-14T04:00:09;4.60;;;3.63;;
74344;SDS011;62776;50.518;6.732;2023-06-14T04:03:00;3.95;;;3.45;;
74344;SDS011;62776;50.518;6.732;2023-06-14T04:05:48;3.50;;;3.03;;
74344;SDS011;62776;50.518;6.732;2023-06-14T04:08:44;3.40;;;3.17;;
74344;SDS011;62776;50.518;6.732;2023-06-14T04:11:37;3.42;;;2.97;;
74344;SDS011;62776;50.518;6.732;2023-06-14T04:14:26;4.32;;;2.88;;
74344;SDS011;62776;50.518;6.732;2023-06-14T04:17:13;3.00;;;2.75;;
74344;SDS011;62776;50.518;6.732;2023-06-14T04:20:04;3.25;;;2.90;;
74344;SDS011;62776;50.518;6.732;2023-06-14T04:22:56;3.10;;;2.72;;
74344;SDS011;62776;50.518;6.732;2023-06-14T04:25:45;2.90;;;2.60;;
74344;SDS011;62776;50.518;6.732;2023-06-14T04:29:00;2.92;;;2.72;;
74344;SDS011;62776;50.518;6.732;2023-06-14T04:31:51;2.92;;;2.70;;
74344;SDS011;62776;50.518;6.732;2023-06-14T04:34:41;2.92;;;2.67;;
74344;SDS011;62776;50.518;6.732;2023-06-14T04:37:30;3.60;;;2.58;;
74344;SDS011;62776;50.518;6.732;2023-06-14T04:40:18;2.55;;;2.35;;
74344;SDS011;62776;50.518;6.732;2023-06-14T04:43:35;2.60;;;2.40;;
74344;SDS011;62776;50.518;6.732;2023-06-14T04:46:26;4.35;;;2.40;;
74344;SDS011;62776;50.518;6.732;2023-06-14T04:49:18;2.70;;;2.50;;
74344;SDS011;62776;50.518;6.732;2023-06-14T04:52:04;2.60;;;2.40;;
74344;SDS011;62776;50.518;6.732;2023-06-14T04:54:57;2.63;;;2.42;;
74344;SDS011;62776;50.518;6.732;2023-06-14T04:57:45;2.45;;;2.25;;
74344;SDS011;62776;50.518;6.732;2023-06-14T05:00:35;4.40;;;2.80;;
74344;SDS011;62776;50.518;6.732;2023-06-14T05:03:23;4.28;;;2.70;;
74344;SDS011;62776;50.518;6.732;2023-06-14T05:06:15;3.03;;;2.83;;
74344;SDS011;62776;50.518;6.732;2023-06-14T05:09:03;5.25;;;2.53;;
74344;SDS011;62776;50.518;6.732;2023-06-14T05:11:50;4.13;;;2.63;;
74344;SDS011;62776;50.518;6.732;2023-06-14T05:14:46;2.63;;;2.43;;
74344;SDS011;62776;50.518;6.732;2023-06-14T05:17:35;5.50;;;3.08;;
74344;SDS011;62776;50.518;6.732;2023-06-14T05:20:26;3.03;;;2.80;;
74344;SDS011;62776;50.518;6.732;2023-06-14T05:23:16;6.25;;;3.00;;
74344;SDS011;62776;50.518;6.732;2023-06-14T05:26:08;8.15;;;3.17;;
74344;SDS011;62776;50.518;6.732;2023-06-14T05:28:59;3.35;;;3.05;;
74344;SDS011;62776;50.518;6.732;2023-06-14T05:31:57;5.45;;;2.92;;
74344;SDS011;62776;50.518;6.732;2023-06-14T05:34:45;2.65;;;2.40;;
74344;SDS011;62776;50.518;6.732;2023-06-14T05:37:33;3.83;;;2.60;;
74344;SDS011;62776;50.518;6.732;2023-06-14T05:40:21;3.00;;;2.80;;
74344;SDS011;62776;50.518;6.732;2023-06-14T05:43:17;3.20;;;3.00;;
74344;SDS011;62776;50.518;6.732;2023-06-14T05:46:07;3.55;;;2.53;;
74344;SDS011;62776;50.518;6.732;2023-06-14T05:49:02;4.95;;;2.60;;
74344;SDS011;62776;50.518;6.732;2023-06-14T05:51:54;2.80;;;2.60;;
74344;SDS011;62776;50.518;6.732;2023-06-14T05:54:41;2.63;;;2.42;;
74344;SDS011;62776;50.518;6.732;2023-06-14T05:57:31;5.05;;;2.67;;
74344;SDS011;62776;50.518;6.732;2023-06-14T06:00:19;4.22;;;2.85;;
74344;SDS011;62776;50.518;6.732;2023-06-14T06:03:10;4.13;;;2.50;;
74344;SDS011;62776;50.518;6.732;2023-06-14T06:06:00;2.78;;;2.58;;
74344;SDS011;62776;50.518;6.732;2023-06-14T06:09:11;2.53;;;2.33;;
74344;SDS011;62776;50.518;6.732;2023-06-14T06:12:19;3.83;;;2.25;;
74344;SDS011;62776;50.518;6.732;2023-06-14T06:15:06;2.95;;;2.70;;
74344;SDS011;62776;50.518;6.732;2023-06-14T06:17:54;2.97;;;2.72;;
74344;SDS011;62776;50.518;6.732;2023-06-14T06:20:40;2.70;;;2.50;;
74344;SDS011;62776;50.518;6.732;2023-06-14T06:26:32;3.17;;;2.80;;
74344;SDS011;62776;50.518;6.732;2023-06-14T06:29:19;2.40;;;2.20;;
74344;SDS011;62776;50.518;6.732;2023-06-14T06:32:11;3.65;;;2.40;;
74344;SDS011;62776;50.518;6.732;2023-06-14T06:35:02;4.13;;;2.40;;
74344;SDS011;62776;50.518;6.732;2023-06-14T06:37:51;2.70;;;2.50;;
74344;SDS011;62776;50.518;6.732;2023-06-14T06:40:47;3.70;;;2.40;;
74344;SDS011;62776;50.518;6.732;2023-06-14T06:43:34;3.58;;;2.75;;
74344;SDS011;62776;50.518;6.732;2023-06-14T06:46:22;3.25;;;2.20;;
74344;SDS011;62776;50.518;6.732;2023-06-14T06:49:09;3.13;;;2.35;;
74344;SDS011;62776;50.518;6.732;2023-06-14T06:52:06;5.95;;;2.80;;
74344;SDS011;62776;50.518;6.732;2023-06-14T06:54:55;3.35;;;2.67;;
74344;SDS011;62776;50.518;6.732;2023-06-14T06:57:44;2.65;;;2.00;;
74344;SDS011;62776;50.518;6.732;2023-06-14T07:00:30;2.70;;;2.50;;
74344;SDS011;62776;50.518;6.732;2023-06-14T07:03:19;3.70;;;1.95;;
74344;SDS011;62776;50.518;6.732;2023-06-14T07:06:10;6.03;;;2.17;;
74344;SDS011;62776;50.518;6.732;2023-06-14T07:08:57;2.28;;;2.08;;
74344;SDS011;62776;50.518;6.732;2023-06-14T07:11:56;2.78;;;2.40;;
74344;SDS011;62776;50.518;6.732;2023-06-14T07:14:43;2.17;;;1.98;;
74344;SDS011;62776;50.518;6.732;2023-06-14T07:17:33;2.85;;;2.08;;
74344;SDS011;62776;50.518;6.732;2023-06-14T07:20:20;3.92;;;2.03;;
74344;SDS011;62776;50.518;6.732;2023-06-14T07:23:11;2.15;;;1.95;;
74344;SDS011;62776;50.518;6.732;2023-06-14T07:28:50;2.47;;;1.73;;
74344;SDS011;62776;50.518;6.732;2023-06-14T07:31:43;2.63;;;2.25;;
74344;SDS011;62776;50.518;6.732;2023-06-14T07:34:35;2.47;;;1.85;;
74344;SDS011;62776;50.518;6.732;2023-06-14T07:37:23;3.83;;;1.90;;
74344;SDS011;62776;50.518;6.732;2023-06-14T07:40:09;2.80;;;1.52;;
74344;SDS011;62776;50.518;6.732;2023-06-14T07:42:59;2.70;;;1.80;;
74344;SDS011;62776;50.518;6.732;2023-06-14T07:45:50;2.08;;;1.88;;
74344;SDS011;62776;50.518;6.732;2023-06-14T07:48:49;5.35;;;1.65;;
74344;SDS011;62776;50.518;6.732;2023-06-14T07:51:35;2.25;;;1.75;;
74344;SDS011;62776;50.518;6.732;2023-06-14T07:54:22;4.90;;;1.75;;
74344;SDS011;62776;50.518;6.732;2023-06-14T07:57:11;2.30;;;1.95;;
74344;SDS011;62776;50.518;6.732;2023-06-14T07:59:58;5.22;;;2.08;;
74344;SDS011;62776;50.518;6.732;2023-06-14T08:02:44;2.90;;;1.52;;
74344;SDS011;62776;50.518;6.732;2023-06-14T08:05:32;2.40;;;1.40;;
74344;SDS011;62776;50.518;6.732;2023-06-14T08:08:19;2.30;;;1.73;;
74344;SDS011;62776;50.518;6.732;2023-06-14T08:11:05;2.92;;;2.05;;
74344;SDS011;62776;50.518;6.732;2023-06-14T08:13:51;2.22;;;2.03;;
74344;SDS011;62776;50.518;6.732;2023-06-14T08:16:37;2.60;;;2.10;;
74344;SDS011;62776;50.518;6.732;2023-06-14T08:19:25;4.88;;;1.80;;
74344;SDS011;62776;50.518;6.732;2023-06-14T08:22:17;4.40;;;2.28;;
74344;SDS011;62776;50.518;6.732;2023-06-14T08:25:04;1.80;;;1.70;;
74344;SDS011;62776;50.518;6.732;2023-06-14T08:27:53;4.47;;;1.67;;
74344;SDS011;62776;50.518;6.732;2023-06-14T08:30:41;3.78;;;1.67;;
74344;SDS011;62776;50.518;6.732;2023-06-14T08:33:28;1.55;;;1.45;;
74344;SDS011;62776;50.518;6.732;2023-06-14T08:36:14;1.75;;;1.65;;
74344;SDS011;62776;50.518;6.732;2023-06-14T08:39:01;4.13;;;1.70;;
74344;SDS011;62776;50.518;6.732;2023-06-14T08:41:48;3.67;;;1.60;;
74344;SDS011;62776;50.518;6.732;2023-06-14T08:44:35;2.22;;;1.80;;
74344;SDS011;62776;50.518;6.732;2023-06-14T08:47:22;2.03;;;1.65;;
74344;SDS011;62776;50.518;6.732;2023-06-14T08:50:20;2.80;;;1.58;;
74344;SDS011;62776;50.518;6.732;2023-06-14T08:53:07;2.40;;;1.50;;
74344;SDS011;62776;50.518;6.732;2023-06-14T08:55:56;5.22;;;1.95;;
74344;SDS011;62776;50.518;6.732;2023-06-14T08:58:47;3.17;;;1.70;;
74344;SDS011;62776;50.518;6.732;2023-06-14T09:01:36;3.25;;;1.85;;
74344;SDS011;62776;50.518;6.732;2023-06-14T09:04:30;2.42;;;1.83;;
74344;SDS011;62776;50.518;6.732;2023-06-14T09:07:18;2.53;;;1.42;;
74344;SDS011;62776;50.518;6.732;2023-06-14T09:10:07;4.10;;;2.03;;
74344;SDS011;62776;50.518;6.732;2023-06-14T09:12:55;6.05;;;2.03;;
74344;SDS011;62776;50.518;6.732;2023-06-14T09:15:42;1.92;;;1.50;;
74344;SDS011;62776;50.518;6.732;2023-06-14T09:18:35;4.97;;;1.60;;
74344;SDS011;62776;50.518;6.732;2023-06-14T09:21:22;1.52;;;1.42;;
74344;SDS011;62776;50.518;6.732;2023-06-14T09:45:18;2.90;;;2.10;;
74344;SDS011;62776;50.518;6.732;2023-06-14T09:48:13;1.55;;;1.40;;
74344;SDS011;62776;50.518;6.732;2023-06-14T09:51:02;2.00;;;1.50;;
74344;SDS011;62776;50.518;6.732;2023-06-14T09:53:55;3.92;;;1.77;;
74344;SDS011;62776;50.518;6.732;2023-06-14T09:56:51;2.90;;;1.48;;
74344;SDS011;62776;50.518;6.732;2023-06-14T09:59:42;2.00;;;1.50;;
74344;SDS011;62776;50.518;6.732;2023-06-14T10:02:34;1.67;;;1.55;;
74344;SDS011;62776;50.518;6.732;2023-06-14T10:05:23;1.90;;;1.50;;
74344;SDS011;62776;50.518;6.732;2023-06-14T10:08:14;1.15;;;1.08;;
74344;SDS011;62776;50.518;6.732;2023-06-14T10:11:05;2.70;;;1.50;;
74344;SDS011;62776;50.518;6.732;2023-06-14T10:13:58;2.92;;;1.20;;
74344;SDS011;62776;50.518;6.732;2023-06-14T10:17:00;1.98;;;1.08;;
74344;SDS011;62776;50.518;6.732;2023-06-14T10:19:56;2.08;;;1.88;;
74344;SDS011;62776;50.518;6.732;2023-06-14T10:23:09;2.53;;;1.23;;
74344;SDS011;62776;50.518;6.732;2023-06-14T10:26:02;1.88;;;1.00;;
74344;SDS011;62776;50.518;6.732;2023-06-14T10:29:22;1.25;;;1.15;;
74344;SDS011;62776;50.518;6.732;2023-06-14T10:32:01;3.28;;;1.35;;
74344;SDS011;62776;50.518;6.732;2023-06-14T10:34:53;1.35;;;1.10;;
74344;SDS011;62776;50.518;6.732;2023-06-14T10:37:51;1.42;;;1.33;;
74344;SDS011;62776;50.518;6.732;2023-06-14T10:40:39;3.25;;;1.70;;
74344;SDS011;62776;50.518;6.732;2023-06-14T10:43:26;3.35;;;1.42;;
74344;SDS011;62776;50.518;6.732;2023-06-14T10:46:14;1.38;;;1.27;;
74344;SDS011;62776;50.518;6.732;2023-06-14T10:49:05;2.13;;;1.25;;
74344;SDS011;62776;50.518;6.732;2023-06-14T10:51:57;3.05;;;1.40;;
74344;SDS011;62776;50.518;6.732;2023-06-14T10:58:09;2.38;;;1.20;;
74344;SDS011;62776;50.518;6.732;2023-06-14T11:00:55;1.40;;;1.30;;
74344;SDS011;62776;50.518;6.732;2023-06-14T11:03:51;1.10;;;1.05;;
74344;SDS011;62776;50.518;6.732;2023-06-14T11:06:45;0.90;;;0.90;;
74344;SDS011;62776;50.518;6.732;2023-06-14T11:09:45;1.60;;;1.50;;
74344;SDS011;62776;50.518;6.732;2023-06-14T11:12:49;1.33;;;1.23;;
74344;SDS011;62776;50.518;6.732;2023-06-14T11:15:45;1.80;;;1.70;;
74344;SDS011;62776;50.518;6.732;2023-06-14T11:18:33;1.55;;;1.45;;
74344;SDS011;62776;50.518;6.732;2023-06-14T11:21:23;1.40;;;1.30;;
74344;SDS011;62776;50.518;6.732;2023-06-14T11:24:21;1.45;;;1.27;;
74344;SDS011;62776;50.518;6.732;2023-06-14T11:27:08;1.58;;;1.45;;
74344;SDS011;62776;50.518;6.732;2023-06-14T11:29:56;1.67;;;1.42;;
74344;SDS011;62776;50.518;6.732;2023-06-14T11:32:50;1.40;;;1.30;;
74344;SDS011;62776;50.518;6.732;2023-06-14T11:35:39;1.50;;;1.40;;
74344;SDS011;62776;50.518;6.732;2023-06-14T11:38:27;1.20;;;1.10;;
74344;SDS011;62776;50.518;6.732;2023-06-14T11:41:15;1.40;;;1.30;;
74344;SDS011;62776;50.518;6.732;2023-06-14T11:44:03;1.52;;;1.42;;
74344;SDS011;62776;50.518;6.732;2023-06-14T11:46:58;1.98;;;1.27;;
74344;SDS011;62776;50.518;6.732;2023-06-14T11:49:48;4.78;;;1.40;;
74344;SDS011;62776;50.518;6.732;2023-06-14T11:52:36;1.80;;;1.25;;
74344;SDS011;62776;50.518;6.732;2023-06-14T11:55:24;2.65;;;1.40;;
74344;SDS011;62776;50.518;6.732;2023-06-14T11:58:16;1.83;;;1.65;;
74344;SDS011;62776;50.518;6.732;2023-06-14T12:01:04;1.60;;;1.50;;
74344;SDS011;62776;50.518;6.732;2023-06-14T12:03:53;1.30;;;1.20;;
74344;SDS011;62776;50.518;6.732;2023-06-14T12:06:40;3.83;;;1.60;;
74344;SDS011;62776;50.518;6.732;2023-06-14T12:09:32;2.00;;;1.55;;
74344;SDS011;62776;50.518;6.732;2023-06-14T12:12:22;1.88;;;1.38;;
74344;SDS011;62776;50.518;6.732;2023-06-14T12:15:10;3.70;;;1.60;;
74344;SDS011;62776;50.518;6.732;2023-06-14T12:17:57;1.58;;;1.30;;
74344;SDS011;62776;50.518;6.732;2023-06-14T12:20:47;1.63;;;1.33;;
74344;SDS011;62776;50.518;6.732;2023-06-14T12:23:49;2.58;;;1.30;;
74344;SDS011;62776;50.518;6.732;2023-06-14T12:26:39;1.50;;;1.40;;
74344;SDS011;62776;50.518;6.732;2023-06-14T12:29:27;1.58;;;1.48;;
74344;SDS011;62776;50.518;6.732;2023-06-14T12:32:16;2.17;;;1.38;;
74344;SDS011;62776;50.518;6.732;2023-06-14T12:35:02;1.17;;;1.10;;
74344;SDS011;62776;50.518;6.732;2023-06-14T12:37:48;1.55;;;1.45;;
74344;SDS011;62776;50.518;6.732;2023-06-14T12:40:36;1.80;;;1.15;;
74344;SDS011;62776;50.518;6.732;2023-06-14T12:43:25;1.30;;;1.20;;
74344;SDS011;62776;50.518;6.732;2023-06-14T12:46:11;1.30;;;1.20;;
74344;SDS011;62776;50.518;6.732;2023-06-14T12:48:58;1.25;;;1.23;;
74344;SDS011;62776;50.518;6.732;2023-06-14T12:51:46;2.15;;;1.20;;
74344;SDS011;62776;50.518;6.732;2023-06-14T12:54:33;1.48;;;1.23;;
74344;SDS011;62776;50.518;6.732;2023-06-14T12:57:20;1.17;;;1.13;;
74344;SDS011;62776;50.518;6.732;2023-06-14T13:00:08;1.23;;;1.15;;
74344;SDS011;62776;50.518;6.732;2023-06-14T13:02:57;3.75;;;1.55;;
74344;SDS011;62776;50.518;6.732;2023-06-14T13:05:45;6.07;;;1.20;;
74344;SDS011;62776;50.518;6.732;2023-06-14T13:08:31;3.28;;;1.10;;
74344;SDS011;62776;50.518;6.732;2023-06-14T13:11:19;0.95;;;0.95;;
74344;SDS011;62776;50.518;6.732;2023-06-14T13:14:05;5.18;;;1.30;;
74344;SDS011;62776;50.518;6.732;2023-06-14T13:16:52;1.52;;;1.17;;
74344;SDS011;62776;50.518;6.732;2023-06-14T13:19:44;1.30;;;0.95;;
74344;SDS011;62776;50.518;6.732;2023-06-14T13:22:31;1.67;;;1.00;;
74344;SDS011;62776;50.518;6.732;2023-06-14T13:25:18;3.13;;;1.38;;
74344;SDS011;62776;50.518;6.732;2023-06-14T13:28:04;1.42;;;1.33;;
74344;SDS011;62776;50.518;6.732;2023-06-14T13:30:51;2.28;;;1.13;;
74344;SDS011;62776;50.518;6.732;2023-06-14T13:33:37;2.63;;;1.23;;
74344;SDS011;62776;50.518;6.732;2023-06-14T13:36:23;1.02;;;0.93;;
74344;SDS011;62776;50.518;6.732;2023-06-14T13:39:11;2.47;;;1.20;;
74344;SDS011;62776;50.518;6.732;2023-06-14T13:42:00;1.17;;;1.13;;
74344;SDS011;62776;50.518;6.732;2023-06-14T13:44:46;1.00;;;1.00;;
74344;SDS011;62776;50.518;6.732;2023-06-14T13:47:35;1.88;;;0.80;;
74344;SDS011;62776;50.518;6.732;2023-06-14T13:50:21;2.42;;;0.80;;
74344;SDS011;62776;50.518;6.732;2023-06-14T13:53:09;1.92;;;0.95;;
74344;SDS011;62776;50.518;6.732;2023-06-14T13:56:04;3.72;;;1.05;;
74344;SDS011;62776;50.518;6.732;2023-06-14T13:58:51;0.90;;;0.90;;
74344;SDS011;62776;50.518;6.732;2023-06-14T14:01:39;0.90;;;0.90;;
74344;SDS011;62776;50.518;6.732;2023-06-14T14:04:26;2.08;;;0.80;;
74344;SDS011;62776;50.518;6.732;2023-06-14T14:07:12;1.00;;;1.00;;
74344;SDS011;62776;50.518;6.732;2023-06-14T14:09:58;2.17;;;0.75;;
74344;SDS011;62776;50.518;6.732;2023-06-14T14:12:44;0.90;;;0.90;;
74344;SDS011;62776;50.518;6.732;2023-06-14T14:15:31;0.85;;;0.80;;
74344;SDS011;62776;50.518;6.732;2023-06-14T14:18:20;1.35;;;1.00;;
74344;SDS011;62776;50.518;6.732;2023-06-14T14:21:07;1.38;;;0.77;;
74344;SDS011;62776;50.518;6.732;2023-06-14T14:23:56;0.70;;;0.70;;
74344;SDS011;62776;50.518;6.732;2023-06-14T14:26:49;1.50;;;0.90;;
74344;SDS011;62776;50.518;6.732;2023-06-14T14:29:46;1.27;;;1.17;;
74344;SDS011;62776;50.518;6.732;2023-06-14T14:32:38;3.40;;;1.05;;
74344;SDS011;62776;50.518;6.732;2023-06-14T14:35:24;1.40;;;0.82;;
74344;SDS011;62776;50.518;6.732;2023-06-14T14:38:16;0.95;;;0.77;;
74344;SDS011;62776;50.518;6.732;2023-06-14T14:41:08;2.22;;;0.85;;
74344;SDS011;62776;50.518;6.732;2023-06-14T14:43:57;1.15;;;0.77;;
74344;SDS011;62776;50.518;6.732;2023-06-14T14:46:45;0.82;;;0.80;;
74344;SDS011;62776;50.518;6.732;2023-06-14T14:49:33;1.17;;;0.98;;
74344;SDS011;62776;50.518;6.732;2023-06-14T14:52:19;4.78;;;0.98;;
74344;SDS011;62776;50.518;6.732;2023-06-14T14:55:05;0.93;;;0.90;;
74344;SDS011;62776;50.518;6.732;2023-06-14T14:57:53;1.52;;;1.02;;
74344;SDS011;62776;50.518;6.732;2023-06-14T15:00:42;3.85;;;0.82;;
74344;SDS011;62776;50.518;6.732;2023-06-14T15:03:38;2.08;;;0.77;;
74344;SDS011;62776;50.518;6.732;2023-06-14T15:06:25;1.17;;;0.85;;
74344;SDS011;62776;50.518;6.732;2023-06-14T15:09:15;2.25;;;0.80;;
74344;SDS011;62776;50.518;6.732;2023-06-14T15:12:02;2.38;;;1.00;;
74344;SDS011;62776;50.518;6.732;2023-06-14T15:14:51;3.55;;;1.13;;
74344;SDS011;62776;50.518;6.732;2023-06-14T15:17:38;1.17;;;0.90;;
74344;SDS011;62776;50.518;6.732;2023-06-14T15:20:26;0.77;;;0.77;;
74344;SDS011;62776;50.518;6.732;2023-06-14T15:23:12;0.85;;;0.80;;
74344;SDS011;62776;50.518;6.732;2023-06-14T15:26:06;1.55;;;0.90;;
74344;SDS011;62776;50.518;6.732;2023-06-14T15:28:54;2.83;;;0.82;;
74344;SDS011;62776;50.518;6.732;2023-06-14T15:31:40;1.73;;;1.13;;
74344;SDS011;62776;50.518;6.732;2023-06-14T15:34:28;1.00;;;1.00;;
74344;SDS011;62776;50.518;6.732;2023-06-14T15:37:15;1.05;;;0.90;;
74344;SDS011;62776;50.518;6.732;2023-06-14T15:40:03;2.10;;;0.90;;
74344;SDS011;62776;50.518;6.732;2023-06-14T15:42:51;2.28;;;1.00;;
74344;SDS011;62776;50.518;6.732;2023-06-14T15:45:40;0.98;;;0.90;;
74344;SDS011;62776;50.518;6.732;2023-06-14T15:48:28;1.08;;;0.98;;
74344;SDS011;62776;50.518;6.732;2023-06-14T15:51:24;1.92;;;1.10;;
74344;SDS011;62776;50.518;6.732;2023-06-14T15:54:10;1.30;;;1.00;;
74344;SDS011;62776;50.518;6.732;2023-06-14T15:57:03;1.77;;;0.90;;
74344;SDS011;62776;50.518;6.732;2023-06-14T15:59:57;1.60;;;1.20;;
74344;SDS011;62776;50.518;6.732;2023-06-14T16:02:44;3.70;;;1.50;;
74344;SDS011;62776;50.518;6.732;2023-06-14T16:05:32;1.30;;;1.20;;
74344;SDS011;62776;50.518;6.732;2023-06-14T16:08:24;2.90;;;1.10;;
74344;SDS011;62776;50.518;6.732;2023-06-14T16:11:11;2.08;;;1.10;;
74344;SDS011;62776;50.518;6.732;2023-06-14T16:13:57;0.95;;;0.95;;
74344;SDS011;62776;50.518;6.732;2023-06-14T16:16:44;1.58;;;1.00;;
74344;SDS011;62776;50.518;6.732;2023-06-14T16:19:32;2.97;;;1.20;;
74344;SDS011;62776;50.518;6.732;2023-06-14T16:22:18;2.35;;;1.10;;
74344;SDS011;62776;50.518;6.732;2023-06-14T16:25:05;1.73;;;1.02;;
74344;SDS011;62776;50.518;6.732;2023-06-14T16:27:54;5.57;;;0.93;;
74344;SDS011;62776;50.518;6.732;2023-06-14T16:30:41;2.05;;;1.05;;
74344;SDS011;62776;50.518;6.732;2023-06-14T16:33:27;2.80;;;1.10;;
74344;SDS011;62776;50.518;6.732;2023-06-14T16:36:16;1.88;;;1.35;;
74344;SDS011;62776;50.518;6.732;2023-06-14T16:39:04;1.38;;;1.10;;
74344;SDS011;62776;50.518;6.732;2023-06-14T16:41:50;7.00;;;1.20;;
74344;SDS011;62776;50.518;6.732;2023-06-14T16:44:38;2.35;;;1.00;;
74344;SDS011;62776;50.518;6.732;2023-06-14T16:47:24;1.27;;;1.10;;
74344;SDS011;62776;50.518;6.732;2023-06-14T16:50:11;1.20;;;1.02;;
74344;SDS011;62776;50.518;6.732;2023-06-14T16:52:58;2.28;;;0.90;;
74344;SDS011;62776;50.518;6.732;2023-06-14T16:55:46;13.98;;;1.33;;
74344;SDS011;62776;50.518;6.732;2023-06-14T16:58:33;1.48;;;1.10;;
74344;SDS011;62776;50.518;6.732;2023-06-14T17:01:19;3.28;;;1.20;;
74344;SDS011;62776;50.518;6.732;2023-06-14T17:04:07;1.30;;;1.20;;
74344;SDS011;62776;50.518;6.732;2023-06-14T17:06:53;1.35;;;1.08;;
74344;SDS011;62776;50.518;6.732;2023-06-14T17:09:42;1.65;;;1.25;;
74344;SDS011;62776;50.518;6.732;2023-06-14T17:12:36;1.10;;;1.00;;
74344;SDS011;62776;50.518;6.732;2023-06-14T17:15:22;3.22;;;1.30;;
74344;SDS011;62776;50.518;6.732;2023-06-14T17:18:08;2.10;;;0.90;;
74344;SDS011;62776;50.518;6.732;2023-06-14T17:20:56;1.58;;;1.30;;
74344;SDS011;62776;50.518;6.732;2023-06-14T17:23:42;1.27;;;1.17;;
74344;SDS011;62776;50.518;6.732;2023-06-14T17:26:29;2.03;;;1.35;;
74344;SDS011;62776;50.518;6.732;2023-06-14T17:29:18;1.92;;;1.30;;
74344;SDS011;62776;50.518;6.732;2023-06-14T17:32:08;1.75;;;1.23;;
74344;SDS011;62776;50.518;6.732;2023-06-14T17:34:56;1.13;;;1.00;;
74344;SDS011;62776;50.518;6.732;2023-06-14T17:37:43;1.55;;;1.25;;
74344;SDS011;62776;50.518;6.732;2023-06-14T17:40:34;1.27;;;1.17;;